sensor_id;sensor_type;location;lat;lon;timestamp;temperature;humidity
31725;DHT22;18306;40.960;14.836;2023-07-13T00:00:12;25.60;99.90
31725;DHT22;18306;40.960;14.836;2023-07-13T00:02:42;25.60;99.90
31725;DHT22;18306;40.960;14.836;2023-07-13T00:05:09;25.60;99.90
31725;DHT22;18306;40.960;14.836;2023-07-13T00:07:37;25.60;99.90
31725;DHT22;18306;40.960;14.836;2023-07-13T00:10:04;25.50;99.90
31725;DHT22;18306;40.960;14.836;2023-07-13T00:12:34;25.50;99.90
31725;DHT22;18306;40.960;14.836;2023-07-13T00:15:05;25.50;99.90
31725;DHT22;18306;40.960;14.836;2023-07-13T00:17:33;25.40;99.90
31725;DHT22;18306;40.960;14.836;2023-07-13T00:19:59;25.30;99.90
31725;DHT22;18306;40.960;14.836;2023-07-13T00:22:26;25.30;99.90
31725;DHT22;18306;40.960;14.836;2023-07-13T00:24:54;25.40;99.90
31725;DHT22;18306;40.960;14.836;2023-07-13T00:27:24;25.40;99.90
31725;DHT22;18306;40.960;14.836;2023-07-13T00:29:56;25.50;99.90
31725;DHT22;18306;40.960;14.836;2023-07-13T00:32:23;25.60;99.90
31725;DHT22;18306;40.960;14.836;2023-07-13T00:34:52;25.60;99.90
31725;DHT22;18306;40.960;14.836;2023-07-13T00:37:19;25.50;99.90
31725;DHT22;18306;40.960;14.836;2023-07-13T00:39:47;25.60;99.90
31725;DHT22;18306;40.960;14.836;2023-07-13T00:42:14;25.50;99.90
31725;DHT22;18306;40.960;14.836;2023-07-13T00:44:59;25.50;99.90
31725;DHT22;18306;40.960;14.836;2023-07-13T00:47:27;25.40;99.90
31725;DHT22;18306;40.960;14.836;2023-07-13T00:49:54;25.40;99.90
31725;DHT22;18306;40.960;14.836;2023-07-13T00:52:21;25.30;99.90
31725;DHT22;18306;40.960;14.836;2023-07-13T00:54:48;25.20;99.90
31725;DHT22;18306;40.960;14.836;2023-07-13T00:57:18;25.20;99.90
31725;DHT22;18306;40.960;14.836;2023-07-13T00:59:49;25.20;99.90
31725;DHT22;18306;40.960;14.836;2023-07-13T01:02:18;25.20;99.90
31725;DHT22;18306;40.960;14.836;2023-07-13T01:04:45;25.20;99.90
31725;DHT22;18306;40.960;14.836;2023-07-13T01:07:12;25.20;99.90
31725;DHT22;18306;40.960;14.836;2023-07-13T01:09:39;25.20;99.90
31725;DHT22;18306;40.960;14.836;2023-07-13T01:12:07;25.20;99.90
31725;DHT22;18306;40.960;14.836;2023-07-13T01:14:34;25.10;99.90
31725;DHT22;18306;40.960;14.836;2023-07-13T01:17:01;25.10;99.90
31725;DHT22;18306;40.960;14.836;2023-07-13T01:19:40;25.00;99.90
31725;DHT22;18306;40.960;14.836;2023-07-13T01:22:12;25.00;99.90
31725;DHT22;18306;40.960;14.836;2023-07-13T01:24:41;24.90;99.90
31725;DHT22;18306;40.960;14.836;2023-07-13T01:27:11;24.80;99.90
31725;DHT22;18306;40.960;14.836;2023-07-13T01:29:42;24.70;99.90
31725;DHT22;18306;40.960;14.836;2023-07-13T01:32:16;24.70;99.90
31725;DHT22;18306;40.960;14.836;2023-07-13T01:34:43;24.70;99.90
31725;DHT22;18306;40.960;14.836;2023-07-13T01:37:12;24.60;99.90
31725;DHT22;18306;40.960;14.836;2023-07-13T01:39:39;24.60;99.90
31725;DHT22;18306;40.960;14.836;2023-07-13T01:42:06;24.60;99.90
31725;DHT22;18306;40.960;14.836;2023-07-13T01:44:33;24.50;99.90
31725;DHT22;18306;40.960;14.836;2023-07-13T01:47:01;24.50;99.90
31725;DHT22;18306;40.960;14.836;2023-07-13T01:49:28;24.50;99.90
31725;DHT22;18306;40.960;14.836;2023-07-13T01:51:55;24.50;99.90
31725;DHT22;18306;40.960;14.836;2023-07-13T01:54:22;24.50;99.90
31725;DHT22;18306;40.960;14.836;2023-07-13T01:56:51;24.40;99.90
31725;DHT22;18306;40.960;14.836;2023-07-13T01:59:18;24.50;99.90
31725;DHT22;18306;40.960;14.836;2023-07-13T02:01:44;24.50;99.90
31725;DHT22;18306;40.960;14.836;2023-07-13T02:04:11;24.50;99.90
31725;DHT22;18306;40.960;14.836;2023-07-13T02:06:38;24.40;99.90
31725;DHT22;18306;40.960;14.836;2023-07-13T02:09:05;24.40;99.90
31725;DHT22;18306;40.960;14.836;2023-07-13T02:11:33;24.40;99.90
31725;DHT22;18306;40.960;14.836;2023-07-13T02:14:01;24.30;99.90
31725;DHT22;18306;40.960;14.836;2023-07-13T02:16:29;24.30;99.90
31725;DHT22;18306;40.960;14.836;2023-07-13T02:18:56;24.20;99.90
31725;DHT22;18306;40.960;14.836;2023-07-13T02:21:24;24.10;99.90
31725;DHT22;18306;40.960;14.836;2023-07-13T02:23:52;24.10;99.90
31725;DHT22;18306;40.960;14.836;2023-07-13T02:26:19;24.00;99.90
31725;DHT22;18306;40.960;14.836;2023-07-13T02:28:47;24.00;99.90
31725;DHT22;18306;40.960;14.836;2023-07-13T02:31:15;24.00;99.90
31725;DHT22;18306;40.960;14.836;2023-07-13T02:33:43;23.90;99.90
31725;DHT22;18306;40.960;14.836;2023-07-13T02:36:12;24.00;99.90
31725;DHT22;18306;40.960;14.836;2023-07-13T02:38:41;24.00;99.90
31725;DHT22;18306;40.960;14.836;2023-07-13T02:41:09;24.00;99.90
31725;DHT22;18306;40.960;14.836;2023-07-13T02:43:37;24.00;99.90
31725;DHT22;18306;40.960;14.836;2023-07-13T02:46:04;24.00;99.90
31725;DHT22;18306;40.960;14.836;2023-07-13T02:48:37;24.00;99.90
31725;DHT22;18306;40.960;14.836;2023-07-13T02:51:04;24.00;99.90
31725;DHT22;18306;40.960;14.836;2023-07-13T02:53:31;24.00;99.90
31725;DHT22;18306;40.960;14.836;2023-07-13T02:55:58;24.00;99.90
31725;DHT22;18306;40.960;14.836;2023-07-13T02:58:26;24.00;99.90
31725;DHT22;18306;40.960;14.836;2023-07-13T03:00:53;24.00;99.90
31725;DHT22;18306;40.960;14.836;2023-07-13T03:03:20;24.00;99.90
31725;DHT22;18306;40.960;14.836;2023-07-13T03:05:48;24.00;99.90
31725;DHT22;18306;40.960;14.836;2023-07-13T03:08:24;24.00;99.90
31725;DHT22;18306;40.960;14.836;2023-07-13T03:11:03;23.90;99.90
31725;DHT22;18306;40.960;14.836;2023-07-13T03:13:34;23.90;99.90
31725;DHT22;18306;40.960;14.836;2023-07-13T03:16:04;23.90;99.90
31725;DHT22;18306;40.960;14.836;2023-07-13T03:18:32;23.90;99.90
31725;DHT22;18306;40.960;14.836;2023-07-13T03:21:04;23.80;99.90
31725;DHT22;18306;40.960;14.836;2023-07-13T03:23:31;23.80;99.90
31725;DHT22;18306;40.960;14.836;2023-07-13T03:26:14;23.80;99.90
31725;DHT22;18306;40.960;14.836;2023-07-13T03:28:42;23.80;99.90
31725;DHT22;18306;40.960;14.836;2023-07-13T03:31:19;23.80;99.90
31725;DHT22;18306;40.960;14.836;2023-07-13T03:33:47;23.90;99.90
31725;DHT22;18306;40.960;14.836;2023-07-13T03:36:18;23.70;99.90
31725;DHT22;18306;40.960;14.836;2023-07-13T03:38:52;23.60;99.90
31725;DHT22;18306;40.960;14.836;2023-07-13T03:41:23;23.50;99.90
31725;DHT22;18306;40.960;14.836;2023-07-13T03:43:53;23.60;99.90
31725;DHT22;18306;40.960;14.836;2023-07-13T03:46:22;23.60;99.90
31725;DHT22;18306;40.960;14.836;2023-07-13T03:48:49;23.60;99.90
31725;DHT22;18306;40.960;14.836;2023-07-13T03:51:20;23.60;99.90
31725;DHT22;18306;40.960;14.836;2023-07-13T03:53:55;23.60;99.90
31725;DHT22;18306;40.960;14.836;2023-07-13T03:56:45;23.60;99.90
31725;DHT22;18306;40.960;14.836;2023-07-13T03:59:28;23.40;99.90
31725;DHT22;18306;40.960;14.836;2023-07-13T04:02:03;23.50;99.90
31725;DHT22;18306;40.960;14.836;2023-07-13T04:04:38;23.60;99.90
31725;DHT22;18306;40.960;14.836;2023-07-13T04:07:11;23.70;99.90
31725;DHT22;18306;40.960;14.836;2023-07-13T04:09:40;23.60;99.90
31725;DHT22;18306;40.960;14.836;2023-07-13T04:12:07;23.60;99.90
31725;DHT22;18306;40.960;14.836;2023-07-13T04:14:34;23.60;99.90
31725;DHT22;18306;40.960;14.836;2023-07-13T04:17:01;23.70;99.90
31725;DHT22;18306;40.960;14.836;2023-07-13T04:19:28;23.80;99.90
31725;DHT22;18306;40.960;14.836;2023-07-13T04:21:55;23.80;99.90
31725;DHT22;18306;40.960;14.836;2023-07-13T04:24:22;23.80;99.90
31725;DHT22;18306;40.960;14.836;2023-07-13T04:26:49;23.70;99.90
31725;DHT22;18306;40.960;14.836;2023-07-13T04:29:16;23.70;99.90
31725;DHT22;18306;40.960;14.836;2023-07-13T04:31:43;23.70;99.90
31725;DHT22;18306;40.960;14.836;2023-07-13T04:34:10;23.80;99.90
31725;DHT22;18306;40.960;14.836;2023-07-13T04:36:37;23.80;99.90
31725;DHT22;18306;40.960;14.836;2023-07-13T04:39:04;23.90;99.90
31725;DHT22;18306;40.960;14.836;2023-07-13T04:41:31;24.00;99.90
31725;DHT22;18306;40.960;14.836;2023-07-13T04:43:58;24.10;99.90
31725;DHT22;18306;40.960;14.836;2023-07-13T04:46:25;24.00;99.90
31725;DHT22;18306;40.960;14.836;2023-07-13T04:48:52;24.00;99.90
31725;DHT22;18306;40.960;14.836;2023-07-13T04:51:20;23.90;99.90
31725;DHT22;18306;40.960;14.836;2023-07-13T04:53:47;24.00;99.90
31725;DHT22;18306;40.960;14.836;2023-07-13T04:56:14;24.20;99.90
31725;DHT22;18306;40.960;14.836;2023-07-13T04:58:41;24.40;99.90
31725;DHT22;18306;40.960;14.836;2023-07-13T05:01:09;24.40;99.90
31725;DHT22;18306;40.960;14.836;2023-07-13T05:03:36;24.50;99.90
31725;DHT22;18306;40.960;14.836;2023-07-13T05:06:06;24.70;99.90
31725;DHT22;18306;40.960;14.836;2023-07-13T05:08:33;24.80;99.90
31725;DHT22;18306;40.960;14.836;2023-07-13T05:11:03;24.80;99.90
31725;DHT22;18306;40.960;14.836;2023-07-13T05:13:30;25.00;99.90
31725;DHT22;18306;40.960;14.836;2023-07-13T05:16:03;25.10;99.90
31725;DHT22;18306;40.960;14.836;2023-07-13T05:18:30;25.30;99.90
31725;DHT22;18306;40.960;14.836;2023-07-13T05:21:03;25.40;99.90
31725;DHT22;18306;40.960;14.836;2023-07-13T05:23:32;25.60;99.90
31725;DHT22;18306;40.960;14.836;2023-07-13T05:26:03;25.70;99.90
31725;DHT22;18306;40.960;14.836;2023-07-13T05:28:31;25.90;99.90
31725;DHT22;18306;40.960;14.836;2023-07-13T05:30:59;26.00;99.90
31725;DHT22;18306;40.960;14.836;2023-07-13T05:33:26;26.10;99.90
31725;DHT22;18306;40.960;14.836;2023-07-13T05:35:54;26.30;99.90
31725;DHT22;18306;40.960;14.836;2023-07-13T05:38:21;26.50;99.90
31725;DHT22;18306;40.960;14.836;2023-07-13T05:40:49;26.90;99.90
31725;DHT22;18306;40.960;14.836;2023-07-13T05:43:16;27.50;99.90
31725;DHT22;18306;40.960;14.836;2023-07-13T05:45:43;28.10;99.90
31725;DHT22;18306;40.960;14.836;2023-07-13T05:48:10;28.90;99.60
31725;DHT22;18306;40.960;14.836;2023-07-13T05:50:37;29.60;98.30
31725;DHT22;18306;40.960;14.836;2023-07-13T05:53:04;30.50;98.00
31725;DHT22;18306;40.960;14.836;2023-07-13T05:55:31;31.50;96.80
31725;DHT22;18306;40.960;14.836;2023-07-13T05:58:00;32.50;95.00
31725;DHT22;18306;40.960;14.836;2023-07-13T06:00:27;33.30;93.30
31725;DHT22;18306;40.960;14.836;2023-07-13T06:02:55;33.90;92.90
31725;DHT22;18306;40.960;14.836;2023-07-13T06:05:22;34.80;92.50
31725;DHT22;18306;40.960;14.836;2023-07-13T06:07:49;35.50;91.10
31725;DHT22;18306;40.960;14.836;2023-07-13T06:10:16;36.10;91.50
31725;DHT22;18306;40.960;14.836;2023-07-13T06:12:43;36.70;90.70
31725;DHT22;18306;40.960;14.836;2023-07-13T06:15:11;37.30;89.20
31725;DHT22;18306;40.960;14.836;2023-07-13T06:17:38;37.70;87.70
31725;DHT22;18306;40.960;14.836;2023-07-13T06:20:06;38.30;87.00
31725;DHT22;18306;40.960;14.836;2023-07-13T06:22:33;38.80;85.90
31725;DHT22;18306;40.960;14.836;2023-07-13T06:25:00;39.20;85.10
31725;DHT22;18306;40.960;14.836;2023-07-13T06:27:27;39.50;82.60
31725;DHT22;18306;40.960;14.836;2023-07-13T06:29:54;39.60;83.00
31725;DHT22;18306;40.960;14.836;2023-07-13T06:32:21;39.70;82.90
31725;DHT22;18306;40.960;14.836;2023-07-13T06:34:48;39.50;82.60
31725;DHT22;18306;40.960;14.836;2023-07-13T06:37:15;38.80;82.50
31725;DHT22;18306;40.960;14.836;2023-07-13T06:39:42;38.00;81.40
31725;DHT22;18306;40.960;14.836;2023-07-13T06:42:09;37.30;82.30
31725;DHT22;18306;40.960;14.836;2023-07-13T06:44:36;36.80;84.50
31725;DHT22;18306;40.960;14.836;2023-07-13T06:47:03;36.40;86.00
31725;DHT22;18306;40.960;14.836;2023-07-13T06:49:30;35.90;86.80
31725;DHT22;18306;40.960;14.836;2023-07-13T06:51:58;35.50;87.30
31725;DHT22;18306;40.960;14.836;2023-07-13T06:54:24;35.00;88.10
31725;DHT22;18306;40.960;14.836;2023-07-13T06:56:51;34.60;90.20
31725;DHT22;18306;40.960;14.836;2023-07-13T06:59:19;34.40;89.80
31725;DHT22;18306;40.960;14.836;2023-07-13T07:01:46;34.20;90.00
31725;DHT22;18306;40.960;14.836;2023-07-13T07:04:13;33.90;90.00
31725;DHT22;18306;40.960;14.836;2023-07-13T07:06:40;33.70;89.90
31725;DHT22;18306;40.960;14.836;2023-07-13T07:09:06;33.40;87.10
31725;DHT22;18306;40.960;14.836;2023-07-13T07:11:33;33.20;87.60
31725;DHT22;18306;40.960;14.836;2023-07-13T07:14:00;33.00;87.20
31725;DHT22;18306;40.960;14.836;2023-07-13T07:16:27;32.90;89.40
31725;DHT22;18306;40.960;14.836;2023-07-13T07:18:54;33.10;91.30
31725;DHT22;18306;40.960;14.836;2023-07-13T07:21:21;33.10;89.70
31725;DHT22;18306;40.960;14.836;2023-07-13T07:23:51;33.30;90.00
31725;DHT22;18306;40.960;14.836;2023-07-13T07:26:18;33.50;89.70
31725;DHT22;18306;40.960;14.836;2023-07-13T07:28:45;33.60;89.90
31725;DHT22;18306;40.960;14.836;2023-07-13T07:31:12;33.80;89.80
31725;DHT22;18306;40.960;14.836;2023-07-13T07:33:39;33.90;89.20
31725;DHT22;18306;40.960;14.836;2023-07-13T07:36:06;33.80;88.00
31725;DHT22;18306;40.960;14.836;2023-07-13T07:38:34;33.70;87.00
31725;DHT22;18306;40.960;14.836;2023-07-13T07:41:04;33.70;87.80
31725;DHT22;18306;40.960;14.836;2023-07-13T07:43:31;33.40;88.80
31725;DHT22;18306;40.960;14.836;2023-07-13T07:45:59;33.20;88.60
31725;DHT22;18306;40.960;14.836;2023-07-13T07:48:26;32.90;88.40
31725;DHT22;18306;40.960;14.836;2023-07-13T07:50:53;32.50;87.90
31725;DHT22;18306;40.960;14.836;2023-07-13T07:53:20;32.50;88.10
31725;DHT22;18306;40.960;14.836;2023-07-13T07:55:47;32.60;87.60
31725;DHT22;18306;40.960;14.836;2023-07-13T07:58:15;32.80;86.00
31725;DHT22;18306;40.960;14.836;2023-07-13T08:00:42;33.00;86.40
31725;DHT22;18306;40.960;14.836;2023-07-13T08:03:09;33.10;84.40
31725;DHT22;18306;40.960;14.836;2023-07-13T08:05:36;33.80;83.50
31725;DHT22;18306;40.960;14.836;2023-07-13T08:08:04;34.60;81.80
31725;DHT22;18306;40.960;14.836;2023-07-13T08:10:31;35.10;79.60
31725;DHT22;18306;40.960;14.836;2023-07-13T08:12:58;35.40;79.50
31725;DHT22;18306;40.960;14.836;2023-07-13T08:15:30;35.30;79.10
31725;DHT22;18306;40.960;14.836;2023-07-13T08:18:04;35.30;78.80
31725;DHT22;18306;40.960;14.836;2023-07-13T08:20:32;35.20;78.80
31725;DHT22;18306;40.960;14.836;2023-07-13T08:23:07;35.10;78.60
31725;DHT22;18306;40.960;14.836;2023-07-13T08:25:37;34.90;78.90
31725;DHT22;18306;40.960;14.836;2023-07-13T08:28:05;34.40;78.00
31725;DHT22;18306;40.960;14.836;2023-07-13T08:30:32;34.20;80.50
31725;DHT22;18306;40.960;14.836;2023-07-13T08:32:59;34.00;80.80
31725;DHT22;18306;40.960;14.836;2023-07-13T08:35:27;33.80;81.60
31725;DHT22;18306;40.960;14.836;2023-07-13T08:37:54;33.60;82.80
31725;DHT22;18306;40.960;14.836;2023-07-13T08:40:24;33.20;83.00
31725;DHT22;18306;40.960;14.836;2023-07-13T08:42:55;33.10;84.00
31725;DHT22;18306;40.960;14.836;2023-07-13T08:45:43;32.80;84.60
31725;DHT22;18306;40.960;14.836;2023-07-13T08:48:35;32.80;85.00
31725;DHT22;18306;40.960;14.836;2023-07-13T08:51:13;32.80;85.60
31725;DHT22;18306;40.960;14.836;2023-07-13T08:53:49;32.90;85.30
31725;DHT22;18306;40.960;14.836;2023-07-13T08:56:23;32.90;85.70
31725;DHT22;18306;40.960;14.836;2023-07-13T08:58:57;33.00;86.50
31725;DHT22;18306;40.960;14.836;2023-07-13T09:01:41;32.70;86.90
31725;DHT22;18306;40.960;14.836;2023-07-13T09:04:16;32.30;88.00
31725;DHT22;18306;40.960;14.836;2023-07-13T09:12:56;32.10;90.50
31725;DHT22;18306;40.960;14.836;2023-07-13T09:15:43;31.80;90.20
31725;DHT22;18306;40.960;14.836;2023-07-13T09:18:27;31.50;90.30
31725;DHT22;18306;40.960;14.836;2023-07-13T09:23:53;31.40;90.30
31725;DHT22;18306;40.960;14.836;2023-07-13T09:26:30;31.10;90.20
31725;DHT22;18306;40.960;14.836;2023-07-13T09:29:16;31.20;90.40
31725;DHT22;18306;40.960;14.836;2023-07-13T09:31:52;31.20;89.70
31725;DHT22;18306;40.960;14.836;2023-07-13T09:34:20;31.20;89.70
31725;DHT22;18306;40.960;14.836;2023-07-13T09:36:47;31.20;89.40
31725;DHT22;18306;40.960;14.836;2023-07-13T09:39:31;31.20;89.10
31725;DHT22;18306;40.960;14.836;2023-07-13T09:42:16;31.00;89.70
31725;DHT22;18306;40.960;14.836;2023-07-13T09:45:02;30.90;90.00
31725;DHT22;18306;40.960;14.836;2023-07-13T09:47:31;31.00;89.20
31725;DHT22;18306;40.960;14.836;2023-07-13T09:50:06;31.10;89.60
31725;DHT22;18306;40.960;14.836;2023-07-13T09:52:48;31.10;89.20
31725;DHT22;18306;40.960;14.836;2023-07-13T09:55:34;31.20;89.40
31725;DHT22;18306;40.960;14.836;2023-07-13T09:58:19;31.30;89.40
31725;DHT22;18306;40.960;14.836;2023-07-13T10:00:58;31.30;89.30
31725;DHT22;18306;40.960;14.836;2023-07-13T10:03:31;31.60;89.40
31725;DHT22;18306;40.960;14.836;2023-07-13T10:06:14;31.50;89.40
31725;DHT22;18306;40.960;14.836;2023-07-13T10:08:41;31.40;88.90
31725;DHT22;18306;40.960;14.836;2023-07-13T10:14:03;31.50;90.20
31725;DHT22;18306;40.960;14.836;2023-07-13T10:16:38;31.40;90.00
31725;DHT22;18306;40.960;14.836;2023-07-13T10:19:12;31.40;90.20
31725;DHT22;18306;40.960;14.836;2023-07-13T10:21:54;31.40;90.00
31725;DHT22;18306;40.960;14.836;2023-07-13T10:24:31;31.50;90.70
31725;DHT22;18306;40.960;14.836;2023-07-13T10:27:18;31.50;90.40
31725;DHT22;18306;40.960;14.836;2023-07-13T10:29:59;31.70;90.80
31725;DHT22;18306;40.960;14.836;2023-07-13T10:32:27;31.70;90.70
31725;DHT22;18306;40.960;14.836;2023-07-13T10:34:55;31.50;91.00
31725;DHT22;18306;40.960;14.836;2023-07-13T10:37:33;31.60;90.90
31725;DHT22;18306;40.960;14.836;2023-07-13T10:40:05;31.80;91.00
31725;DHT22;18306;40.960;14.836;2023-07-13T10:42:39;31.90;90.90
31725;DHT22;18306;40.960;14.836;2023-07-13T10:45:19;32.00;91.10
31725;DHT22;18306;40.960;14.836;2023-07-13T10:47:47;32.10;91.10
31725;DHT22;18306;40.960;14.836;2023-07-13T10:50:25;32.10;91.00
31725;DHT22;18306;40.960;14.836;2023-07-13T10:52:54;32.00;91.00
31725;DHT22;18306;40.960;14.836;2023-07-13T10:55:38;32.20;91.30
31725;DHT22;18306;40.960;14.836;2023-07-13T10:58:34;32.40;91.60
31725;DHT22;18306;40.960;14.836;2023-07-13T11:01:09;32.30;90.90
31725;DHT22;18306;40.960;14.836;2023-07-13T11:58:25;33.00;88.40
31725;DHT22;18306;40.960;14.836;2023-07-13T12:01:03;32.90;88.80
31725;DHT22;18306;40.960;14.836;2023-07-13T12:03:34;33.00;89.30
31725;DHT22;18306;40.960;14.836;2023-07-13T12:06:05;33.10;88.40
31725;DHT22;18306;40.960;14.836;2023-07-13T12:08:38;33.10;88.00
31725;DHT22;18306;40.960;14.836;2023-07-13T12:11:16;32.90;86.70
31725;DHT22;18306;40.960;14.836;2023-07-13T12:13:53;33.00;87.80
31725;DHT22;18306;40.960;14.836;2023-07-13T12:16:30;33.10;87.90
31725;DHT22;18306;40.960;14.836;2023-07-13T12:19:00;33.50;88.30
31725;DHT22;18306;40.960;14.836;2023-07-13T12:21:34;33.10;88.60
31725;DHT22;18306;40.960;14.836;2023-07-13T12:24:02;33.20;88.70
31725;DHT22;18306;40.960;14.836;2023-07-13T12:26:31;33.00;88.60
31725;DHT22;18306;40.960;14.836;2023-07-13T12:29:01;33.10;88.90
31725;DHT22;18306;40.960;14.836;2023-07-13T12:31:37;33.20;88.70
31725;DHT22;18306;40.960;14.836;2023-07-13T12:34:11;33.30;90.00
31725;DHT22;18306;40.960;14.836;2023-07-13T12:39:20;33.00;88.80
31725;DHT22;18306;40.960;14.836;2023-07-13T12:41:51;32.90;87.10
31725;DHT22;18306;40.960;14.836;2023-07-13T12:44:28;32.80;88.80
31725;DHT22;18306;40.960;14.836;2023-07-13T12:47:05;32.60;88.30
31725;DHT22;18306;40.960;14.836;2023-07-13T12:49:41;32.60;89.40
31725;DHT22;18306;40.960;14.836;2023-07-13T12:52:20;32.60;88.70
31725;DHT22;18306;40.960;14.836;2023-07-13T12:54:58;32.40;88.60
31725;DHT22;18306;40.960;14.836;2023-07-13T12:57:27;32.30;88.60
31725;DHT22;18306;40.960;14.836;2023-07-13T12:59:54;32.40;89.20
31725;DHT22;18306;40.960;14.836;2023-07-13T13:02:32;32.40;90.20
31725;DHT22;18306;40.960;14.836;2023-07-13T13:05:01;32.50;89.50
31725;DHT22;18306;40.960;14.836;2023-07-13T13:07:30;32.60;89.40
31725;DHT22;18306;40.960;14.836;2023-07-13T13:09:57;32.60;88.70
31725;DHT22;18306;40.960;14.836;2023-07-13T13:12:25;32.60;88.40
31725;DHT22;18306;40.960;14.836;2023-07-13T13:14:53;32.70;87.90
31725;DHT22;18306;40.960;14.836;2023-07-13T13:17:24;32.60;86.80
31725;DHT22;18306;40.960;14.836;2023-07-13T13:19:53;32.80;88.50
31725;DHT22;18306;40.960;14.836;2023-07-13T13:22:21;32.70;87.60
31725;DHT22;18306;40.960;14.836;2023-07-13T13:24:49;32.80;87.60
31725;DHT22;18306;40.960;14.836;2023-07-13T13:27:18;32.80;86.40
31725;DHT22;18306;40.960;14.836;2023-07-13T13:29:46;32.80;86.80
31725;DHT22;18306;40.960;14.836;2023-07-13T13:32:15;32.90;86.60
31725;DHT22;18306;40.960;14.836;2023-07-13T13:34:42;32.80;86.10
31725;DHT22;18306;40.960;14.836;2023-07-13T13:37:27;32.80;86.30
31725;DHT22;18306;40.960;14.836;2023-07-13T13:39:54;32.80;86.40
31725;DHT22;18306;40.960;14.836;2023-07-13T13:42:22;32.80;85.20
31725;DHT22;18306;40.960;14.836;2023-07-13T13:44:51;32.80;85.20
31725;DHT22;18306;40.960;14.836;2023-07-13T13:47:32;32.60;85.20
31725;DHT22;18306;40.960;14.836;2023-07-13T13:49:59;32.50;85.00
31725;DHT22;18306;40.960;14.836;2023-07-13T13:52:27;32.40;84.20
31725;DHT22;18306;40.960;14.836;2023-07-13T13:54:54;32.50;85.00
31725;DHT22;18306;40.960;14.836;2023-07-13T13:57:23;32.70;85.00
31725;DHT22;18306;40.960;14.836;2023-07-13T13:59:52;32.60;83.60
31725;DHT22;18306;40.960;14.836;2023-07-13T14:02:27;32.60;84.30
31725;DHT22;18306;40.960;14.836;2023-07-13T14:04:58;32.50;84.80
31725;DHT22;18306;40.960;14.836;2023-07-13T14:07:26;32.40;85.20
31725;DHT22;18306;40.960;14.836;2023-07-13T14:09:55;32.60;85.60
31725;DHT22;18306;40.960;14.836;2023-07-13T14:12:23;32.90;85.20
31725;DHT22;18306;40.960;14.836;2023-07-13T14:14:58;32.90;85.10
31725;DHT22;18306;40.960;14.836;2023-07-13T14:17:27;33.00;85.60
31725;DHT22;18306;40.960;14.836;2023-07-13T14:19:54;33.00;85.60
31725;DHT22;18306;40.960;14.836;2023-07-13T14:22:25;32.80;85.90
31725;DHT22;18306;40.960;14.836;2023-07-13T14:24:54;32.80;85.90
31725;DHT22;18306;40.960;14.836;2023-07-13T14:27:26;32.70;85.80
31725;DHT22;18306;40.960;14.836;2023-07-13T14:29:54;32.80;86.20
31725;DHT22;18306;40.960;14.836;2023-07-13T14:32:21;33.00;86.00
31725;DHT22;18306;40.960;14.836;2023-07-13T14:34:48;33.10;85.00
31725;DHT22;18306;40.960;14.836;2023-07-13T14:37:15;33.20;84.80
31725;DHT22;18306;40.960;14.836;2023-07-13T14:39:44;33.40;83.60
31725;DHT22;18306;40.960;14.836;2023-07-13T14:42:12;33.30;83.60
31725;DHT22;18306;40.960;14.836;2023-07-13T14:44:39;33.40;82.80
31725;DHT22;18306;40.960;14.836;2023-07-13T14:47:08;33.40;84.10
31725;DHT22;18306;40.960;14.836;2023-07-13T14:52:17;33.40;83.10
31725;DHT22;18306;40.960;14.836;2023-07-13T14:54:46;33.30;81.70
31725;DHT22;18306;40.960;14.836;2023-07-13T14:57:15;33.30;82.20
31725;DHT22;18306;40.960;14.836;2023-07-13T14:59:43;33.30;83.00
31725;DHT22;18306;40.960;14.836;2023-07-13T15:02:18;33.20;83.10
31725;DHT22;18306;40.960;14.836;2023-07-13T15:04:49;33.30;82.70
31725;DHT22;18306;40.960;14.836;2023-07-13T15:07:16;33.30;82.90
31725;DHT22;18306;40.960;14.836;2023-07-13T15:09:44;33.30;83.00
31725;DHT22;18306;40.960;14.836;2023-07-13T15:12:12;33.10;82.50
31725;DHT22;18306;40.960;14.836;2023-07-13T15:14:39;33.10;82.50
31725;DHT22;18306;40.960;14.836;2023-07-13T15:17:23;33.20;83.40
31725;DHT22;18306;40.960;14.836;2023-07-13T15:19:52;33.10;83.20
31725;DHT22;18306;40.960;14.836;2023-07-13T15:22:20;33.00;82.40
31725;DHT22;18306;40.960;14.836;2023-07-13T15:24:53;33.10;83.90
31725;DHT22;18306;40.960;14.836;2023-07-13T15:27:21;33.00;83.30
31725;DHT22;18306;40.960;14.836;2023-07-13T15:29:48;32.60;83.40
31725;DHT22;18306;40.960;14.836;2023-07-13T15:32:15;32.40;83.00
31725;DHT22;18306;40.960;14.836;2023-07-13T15:34:42;32.60;83.50
31725;DHT22;18306;40.960;14.836;2023-07-13T15:37:18;32.70;83.50
31725;DHT22;18306;40.960;14.836;2023-07-13T15:39:47;32.60;83.40
31725;DHT22;18306;40.960;14.836;2023-07-13T15:42:19;32.60;82.70
31725;DHT22;18306;40.960;14.836;2023-07-13T15:44:47;32.90;83.30
31725;DHT22;18306;40.960;14.836;2023-07-13T15:47:14;32.80;83.50
31725;DHT22;18306;40.960;14.836;2023-07-13T15:49:42;33.00;82.80
31725;DHT22;18306;40.960;14.836;2023-07-13T15:52:17;33.00;82.60
31725;DHT22;18306;40.960;14.836;2023-07-13T15:54:46;32.80;82.80
31725;DHT22;18306;40.960;14.836;2023-07-13T15:57:14;32.70;83.60
31725;DHT22;18306;40.960;14.836;2023-07-13T15:59:42;32.80;84.40
31725;DHT22;18306;40.960;14.836;2023-07-13T16:02:18;32.90;84.40
31725;DHT22;18306;40.960;14.836;2023-07-13T16:04:46;32.90;84.30
31725;DHT22;18306;40.960;14.836;2023-07-13T16:07:15;32.80;84.00
31725;DHT22;18306;40.960;14.836;2023-07-13T16:09:44;32.60;84.90
31725;DHT22;18306;40.960;14.836;2023-07-13T16:12:14;32.50;85.80
31725;DHT22;18306;40.960;14.836;2023-07-13T16:14:42;32.20;86.20
31725;DHT22;18306;40.960;14.836;2023-07-13T16:17:11;32.20;86.20
31725;DHT22;18306;40.960;14.836;2023-07-13T16:19:38;32.20;87.00
31725;DHT22;18306;40.960;14.836;2023-07-13T16:22:08;32.20;87.30
31725;DHT22;18306;40.960;14.836;2023-07-13T16:24:40;32.20;86.90
31725;DHT22;18306;40.960;14.836;2023-07-13T16:27:09;32.10;87.40
31725;DHT22;18306;40.960;14.836;2023-07-13T16:29:36;32.00;87.40
31725;DHT22;18306;40.960;14.836;2023-07-13T16:34:35;31.80;87.10
31725;DHT22;18306;40.960;14.836;2023-07-13T16:37:18;31.80;87.50
31725;DHT22;18306;40.960;14.836;2023-07-13T16:39:50;31.80;88.00
31725;DHT22;18306;40.960;14.836;2023-07-13T16:42:19;31.80;88.50
31725;DHT22;18306;40.960;14.836;2023-07-13T16:44:47;31.80;87.80
31725;DHT22;18306;40.960;14.836;2023-07-13T16:47:24;31.90;88.00